KQA351 HJJJ-HKJK
Flight info
| Callsign | KQA351 |
|---|---|
| Flight time | 1h 25m |
| Altitude | 37000 |
| Route | KABLA1B KABLA UN556 NAK LANE1A |
| Aircraft | E190/M-SDE3GILORVW/S |
Departure
| Time | 2026-05-06 13:27 |
|---|---|
| Airport | Juba International Airport (HJJJ) |
Arrival
| Time | 2026-05-06 14:52 |
|---|---|
| Airport | Jomo Kenyatta International Airport (HKJK) |
| Time | Latitude | Longitude | Altitude | Speed | Heading |
|---|---|---|---|---|---|
| 2026-05-06 13:05 | 4.86643 | 31.60375 | 1540 ft | 0 kts | 40° |
| 2026-05-06 13:18 | 4.86644 | 31.60376 | 1539 ft | 0 kts | 40° |
| 2026-05-06 13:18 | 4.86650 | 31.60381 | 1539 ft | 1 kts | 40° |
| 2026-05-06 13:19 | 4.86663 | 31.60392 | 1539 ft | 3 kts | 39° |
| 2026-05-06 13:19 | 4.86687 | 31.60399 | 1539 ft | 3 kts | 347° |
| 2026-05-06 13:19 | 4.86708 | 31.60384 | 1539 ft | 3 kts | 311° |
| 2026-05-06 13:19 | 4.86727 | 31.60363 | 1539 ft | 4 kts | 311° |
| 2026-05-06 13:20 | 4.86752 | 31.60333 | 1539 ft | 6 kts | 311° |
| 2026-05-06 13:20 | 4.86791 | 31.60293 | 1539 ft | 9 kts | 312° |
| 2026-05-06 13:20 | 4.86839 | 31.60236 | 1538 ft | 12 kts | 307° |
| 2026-05-06 13:20 | 4.86898 | 31.60155 | 1537 ft | 16 kts | 309° |
| 2026-05-06 13:21 | 4.86980 | 31.60058 | 1536 ft | 19 kts | 310° |
| 2026-05-06 13:21 | 4.87080 | 31.59944 | 1535 ft | 23 kts | 310° |
| 2026-05-06 13:21 | 4.87183 | 31.59808 | 1535 ft | 25 kts | 304° |
| 2026-05-06 13:21 | 4.87300 | 31.59674 | 1537 ft | 25 kts | 311° |
| 2026-05-06 13:22 | 4.87421 | 31.59535 | 1536 ft | 27 kts | 311° |
| 2026-05-06 13:22 | 4.87555 | 31.59379 | 1529 ft | 31 kts | 313° |
| 2026-05-06 13:22 | 4.87703 | 31.59207 | 1525 ft | 25 kts | 309° |
| 2026-05-06 13:22 | 4.87760 | 31.59187 | 1525 ft | 7 kts | 42° |
| 2026-05-06 13:23 | 4.87803 | 31.59222 | 1526 ft | 8 kts | 38° |
| 2026-05-06 13:23 | 4.87848 | 31.59257 | 1527 ft | 8 kts | 37° |
| 2026-05-06 13:23 | 4.87901 | 31.59288 | 1527 ft | 8 kts | 348° |
| 2026-05-06 13:23 | 4.87944 | 31.59240 | 1526 ft | 11 kts | 311° |
| 2026-05-06 13:24 | 4.88000 | 31.59172 | 1525 ft | 14 kts | 309° |
| 2026-05-06 13:24 | 4.88066 | 31.59089 | 1524 ft | 16 kts | 311° |
| 2026-05-06 13:24 | 4.88144 | 31.58998 | 1525 ft | 17 kts | 309° |
| 2026-05-06 13:24 | 4.88222 | 31.58900 | 1527 ft | 17 kts | 307° |
| 2026-05-06 13:25 | 4.88274 | 31.58813 | 1529 ft | 6 kts | 303° |
| 2026-05-06 13:25 | 4.88292 | 31.58822 | 1529 ft | 5 kts | 107° |
| 2026-05-06 13:25 | 4.88279 | 31.58842 | 1529 ft | 0 kts | 130° |
| 2026-05-06 13:26 | 4.88272 | 31.58850 | 1528 ft | 7 kts | 129° |
| 2026-05-06 13:26 | 4.88063 | 31.59100 | 1524 ft | 86 kts | 131° |
| 2026-05-06 13:27 | 4.87521 | 31.59737 | 1535 ft | 150 kts | 129° |
| 2026-05-06 13:27 | 4.86768 | 31.60620 | 1787 ft | 176 kts | 128° |
| 2026-05-06 13:27 | 4.85946 | 31.61583 | 2373 ft | 189 kts | 127° |
| 2026-05-06 13:27 | 4.85037 | 31.62648 | 2912 ft | 207 kts | 130° |
| 2026-05-06 13:28 | 4.84152 | 31.63682 | 4003 ft | 189 kts | 124° |
| 2026-05-06 13:28 | 4.83351 | 31.64698 | 4390 ft | 198 kts | 126° |
| 2026-05-06 13:28 | 4.82373 | 31.65891 | 4491 ft | 234 kts | 128° |
| 2026-05-06 13:28 | 4.81236 | 31.67218 | 4672 ft | 266 kts | 129° |
| 2026-05-06 13:29 | 4.79982 | 31.68641 | 5369 ft | 274 kts | 130° |
| 2026-05-06 13:29 | 4.78721 | 31.70092 | 6178 ft | 277 kts | 128° |
| 2026-05-06 13:29 | 4.77506 | 31.71552 | 6958 ft | 279 kts | 128° |
| 2026-05-06 13:29 | 4.76259 | 31.73048 | 7694 ft | 282 kts | 127° |
| 2026-05-06 13:30 | 4.75002 | 31.74555 | 8425 ft | 286 kts | 127° |
| 2026-05-06 13:30 | 4.73715 | 31.76096 | 9168 ft | 288 kts | 127° |
| 2026-05-06 13:30 | 4.72423 | 31.77642 | 9865 ft | 291 kts | 127° |
| 2026-05-06 13:30 | 4.71106 | 31.79219 | 10527 ft | 296 kts | 127° |
| 2026-05-06 13:31 | 4.69775 | 31.80811 | 11228 ft | 298 kts | 126° |
| 2026-05-06 13:31 | 4.68445 | 31.82403 | 11886 ft | 302 kts | 126° |
| 2026-05-06 13:31 | 4.67084 | 31.84031 | 12515 ft | 306 kts | 126° |
| 2026-05-06 13:31 | 4.65720 | 31.85663 | 13149 ft | 309 kts | 126° |
| 2026-05-06 13:32 | 4.64338 | 31.87316 | 13797 ft | 311 kts | 126° |
| 2026-05-06 13:32 | 4.62934 | 31.88995 | 14416 ft | 314 kts | 127° |
| 2026-05-06 13:32 | 4.61525 | 31.90680 | 14993 ft | 318 kts | 127° |
| 2026-05-06 13:32 | 4.60105 | 31.92378 | 15582 ft | 321 kts | 127° |
| 2026-05-06 13:33 | 4.58656 | 31.94110 | 16178 ft | 323 kts | 127° |
| 2026-05-06 13:33 | 4.57231 | 31.95814 | 16734 ft | 326 kts | 127° |
| 2026-05-06 13:33 | 4.55757 | 31.97577 | 17303 ft | 328 kts | 127° |
| 2026-05-06 13:33 | 4.54290 | 31.99330 | 17821 ft | 332 kts | 128° |
| 2026-05-06 13:34 | 4.52796 | 32.01116 | 18339 ft | 335 kts | 128° |
| 2026-05-06 13:34 | 4.51295 | 32.02911 | 18852 ft | 338 kts | 128° |
| 2026-05-06 13:34 | 4.49771 | 32.04733 | 19345 ft | 342 kts | 128° |
| 2026-05-06 13:34 | 4.48240 | 32.06561 | 19834 ft | 345 kts | 128° |
| 2026-05-06 13:35 | 4.46693 | 32.08410 | 20317 ft | 348 kts | 128° |
| 2026-05-06 13:35 | 4.45127 | 32.10282 | 20797 ft | 351 kts | 128° |
| 2026-05-06 13:35 | 4.43570 | 32.12141 | 21260 ft | 354 kts | 128° |
| 2026-05-06 13:35 | 4.41967 | 32.14057 | 21703 ft | 357 kts | 128° |
| 2026-05-06 13:36 | 4.40380 | 32.15953 | 22132 ft | 360 kts | 128° |
| 2026-05-06 13:36 | 4.38766 | 32.17882 | 22590 ft | 362 kts | 128° |
| 2026-05-06 13:36 | 4.37144 | 32.19820 | 23044 ft | 365 kts | 128° |
| 2026-05-06 13:36 | 4.35489 | 32.21796 | 23492 ft | 368 kts | 129° |
| 2026-05-06 13:37 | 4.33677 | 32.23620 | 23911 ft | 371 kts | 146° |
| 2026-05-06 13:37 | 4.31329 | 32.24718 | 24338 ft | 374 kts | 159° |
| 2026-05-06 13:37 | 4.28872 | 32.25602 | 24784 ft | 376 kts | 160° |
| 2026-05-06 13:37 | 4.26419 | 32.26477 | 25202 ft | 378 kts | 160° |
| 2026-05-06 13:38 | 4.23897 | 32.27373 | 25597 ft | 381 kts | 160° |
| 2026-05-06 13:38 | 4.21396 | 32.28260 | 26003 ft | 383 kts | 160° |
| 2026-05-06 13:38 | 4.18885 | 32.29151 | 26406 ft | 384 kts | 160° |
| 2026-05-06 13:38 | 4.16352 | 32.30048 | 26818 ft | 386 kts | 160° |
| 2026-05-06 13:39 | 4.13819 | 32.30947 | 27203 ft | 388 kts | 160° |
| 2026-05-06 13:39 | 4.11264 | 32.31852 | 27585 ft | 389 kts | 160° |
| 2026-05-06 13:39 | 4.08690 | 32.32765 | 27966 ft | 391 kts | 160° |
| 2026-05-06 13:39 | 4.06109 | 32.33680 | 28317 ft | 393 kts | 160° |
| 2026-05-06 13:40 | 4.03517 | 32.34598 | 28675 ft | 395 kts | 160° |
| 2026-05-06 13:40 | 4.00962 | 32.35615 | 29011 ft | 397 kts | 153° |
| 2026-05-06 13:40 | 3.98602 | 32.37077 | 29343 ft | 399 kts | 142° |
| 2026-05-06 13:40 | 3.96472 | 32.38900 | 29666 ft | 402 kts | 139° |
| 2026-05-06 13:41 | 3.94390 | 32.40729 | 29989 ft | 403 kts | 139° |
| 2026-05-06 13:41 | 3.92260 | 32.42592 | 30320 ft | 405 kts | 139° |
| 2026-05-06 13:41 | 3.90110 | 32.44468 | 30618 ft | 407 kts | 139° |
| 2026-05-06 13:41 | 3.87977 | 32.46330 | 30936 ft | 409 kts | 139° |
| 2026-05-06 13:42 | 3.85838 | 32.48196 | 31217 ft | 411 kts | 139° |
| 2026-05-06 13:42 | 3.83660 | 32.50096 | 31516 ft | 413 kts | 139° |
| 2026-05-06 13:42 | 3.81481 | 32.51997 | 31805 ft | 415 kts | 139° |
| 2026-05-06 13:42 | 3.79312 | 32.53889 | 32081 ft | 417 kts | 139° |
| 2026-05-06 13:43 | 3.77130 | 32.55791 | 32340 ft | 419 kts | 139° |
| 2026-05-06 13:43 | 3.74907 | 32.57730 | 32594 ft | 421 kts | 139° |
| 2026-05-06 13:43 | 3.72699 | 32.59656 | 32889 ft | 423 kts | 139° |
| 2026-05-06 13:43 | 3.70484 | 32.61587 | 33154 ft | 426 kts | 139° |
| 2026-05-06 13:44 | 3.68239 | 32.63544 | 33440 ft | 428 kts | 139° |
| 2026-05-06 13:44 | 3.65968 | 32.65524 | 33723 ft | 430 kts | 140° |
| 2026-05-06 13:44 | 3.63717 | 32.67487 | 34002 ft | 432 kts | 140° |
| 2026-05-06 13:44 | 3.61429 | 32.69481 | 34292 ft | 433 kts | 139° |
| 2026-05-06 13:45 | 3.59146 | 32.71471 | 34578 ft | 435 kts | 140° |
| 2026-05-06 13:45 | 3.54586 | 32.75446 | 35112 ft | 438 kts | 139° |
| 2026-05-06 13:45 | 3.52263 | 32.77470 | 35382 ft | 440 kts | 139° |
| 2026-05-06 13:46 | 3.49952 | 32.79484 | 35635 ft | 442 kts | 139° |
| 2026-05-06 13:46 | 3.47647 | 32.81493 | 35884 ft | 444 kts | 139° |
| 2026-05-06 13:46 | 3.45313 | 32.83527 | 36127 ft | 446 kts | 139° |
| 2026-05-06 13:46 | 3.42948 | 32.85587 | 36361 ft | 447 kts | 139° |
| 2026-05-06 13:47 | 3.40592 | 32.87639 | 36583 ft | 449 kts | 139° |
| 2026-05-06 13:47 | 3.38254 | 32.89676 | 36797 ft | 451 kts | 139° |
| 2026-05-06 13:47 | 3.35861 | 32.91761 | 37008 ft | 453 kts | 139° |
| 2026-05-06 13:47 | 3.33481 | 32.93834 | 37178 ft | 449 kts | 139° |
| 2026-05-06 13:48 | 3.28725 | 32.97976 | 37181 ft | 458 kts | 139° |
| 2026-05-06 13:48 | 3.23869 | 33.02205 | 37188 ft | 468 kts | 139° |
| 2026-05-06 13:49 | 3.18913 | 33.06520 | 37179 ft | 475 kts | 139° |
| 2026-05-06 13:49 | 3.13933 | 33.10856 | 37181 ft | 477 kts | 139° |
| 2026-05-06 13:50 | 3.08939 | 33.15203 | 37176 ft | 475 kts | 139° |
| 2026-05-06 13:50 | 3.03951 | 33.19545 | 37175 ft | 475 kts | 139° |
| 2026-05-06 13:51 | 2.98947 | 33.23898 | 37173 ft | 475 kts | 139° |
| 2026-05-06 13:51 | 2.93964 | 33.28235 | 37186 ft | 475 kts | 139° |
| 2026-05-06 13:52 | 2.88979 | 33.32572 | 37194 ft | 473 kts | 139° |
| 2026-05-06 13:52 | 2.84001 | 33.36903 | 37199 ft | 473 kts | 139° |
| 2026-05-06 13:53 | 2.79024 | 33.41232 | 37197 ft | 473 kts | 139° |
| 2026-05-06 13:53 | 2.74099 | 33.45515 | 37201 ft | 471 kts | 139° |
| 2026-05-06 13:54 | 2.69141 | 33.49826 | 37202 ft | 470 kts | 139° |
| 2026-05-06 13:54 | 2.64210 | 33.54114 | 37203 ft | 470 kts | 139° |
| 2026-05-06 13:55 | 2.59256 | 33.58421 | 37205 ft | 469 kts | 139° |
| 2026-05-06 13:55 | 2.54346 | 33.62690 | 37201 ft | 470 kts | 139° |
| 2026-05-06 13:56 | 2.49403 | 33.66987 | 37196 ft | 470 kts | 139° |
| 2026-05-06 13:56 | 2.44468 | 33.71276 | 37195 ft | 469 kts | 139° |
| 2026-05-06 13:57 | 2.39542 | 33.75557 | 37193 ft | 469 kts | 139° |
| 2026-05-06 13:57 | 2.34603 | 33.79849 | 37196 ft | 468 kts | 139° |
| 2026-05-06 13:58 | 2.29688 | 33.84119 | 37204 ft | 468 kts | 139° |
| 2026-05-06 13:58 | 2.24780 | 33.88384 | 37204 ft | 469 kts | 139° |
| 2026-05-06 13:59 | 2.19848 | 33.92669 | 37199 ft | 469 kts | 139° |
| 2026-05-06 13:59 | 2.14905 | 33.96965 | 37203 ft | 470 kts | 139° |
| 2026-05-06 14:00 | 2.09966 | 34.01255 | 37199 ft | 470 kts | 139° |
| 2026-05-06 14:00 | 2.05022 | 34.05550 | 37203 ft | 470 kts | 139° |
| 2026-05-06 14:01 | 2.00065 | 34.09856 | 37204 ft | 468 kts | 139° |
| 2026-05-06 14:01 | 1.95134 | 34.14139 | 37209 ft | 470 kts | 139° |
| 2026-05-06 14:02 | 1.90194 | 34.18429 | 37206 ft | 469 kts | 139° |
| 2026-05-06 14:02 | 1.85275 | 34.22700 | 37209 ft | 469 kts | 139° |
| 2026-05-06 14:03 | 1.80364 | 34.27039 | 37208 ft | 469 kts | 137° |
| 2026-05-06 14:03 | 1.75511 | 34.31425 | 37223 ft | 469 kts | 137° |
| 2026-05-06 14:04 | 1.70678 | 34.35789 | 37228 ft | 468 kts | 137° |
| 2026-05-06 14:04 | 1.65821 | 34.40174 | 37235 ft | 469 kts | 137° |
| 2026-05-06 14:05 | 1.60988 | 34.44537 | 37233 ft | 469 kts | 137° |
| 2026-05-06 14:05 | 1.56141 | 34.48912 | 37243 ft | 469 kts | 137° |
| 2026-05-06 14:06 | 1.51315 | 34.53268 | 37254 ft | 468 kts | 137° |
| 2026-05-06 14:06 | 1.46455 | 34.57655 | 37288 ft | 468 kts | 137° |
| 2026-05-06 14:07 | 1.41654 | 34.61987 | 37320 ft | 468 kts | 137° |
| 2026-05-06 14:07 | 1.36795 | 34.66373 | 37341 ft | 468 kts | 137° |
| 2026-05-06 14:08 | 1.31951 | 34.70744 | 37365 ft | 470 kts | 138° |
| 2026-05-06 14:08 | 1.27107 | 34.75115 | 37375 ft | 470 kts | 138° |
| 2026-05-06 14:09 | 1.22215 | 34.79526 | 37399 ft | 473 kts | 139° |
| 2026-05-06 14:09 | 1.17305 | 34.83845 | 37394 ft | 472 kts | 139° |
| 2026-05-06 14:10 | 1.12336 | 34.88219 | 37412 ft | 473 kts | 139° |
| 2026-05-06 14:10 | 1.07420 | 34.92547 | 37406 ft | 473 kts | 139° |
| 2026-05-06 14:11 | 1.02470 | 34.96905 | 37396 ft | 473 kts | 139° |
| 2026-05-06 14:11 | 0.97545 | 35.01240 | 37398 ft | 473 kts | 139° |
| 2026-05-06 14:12 | 0.92602 | 35.05592 | 37396 ft | 473 kts | 139° |
| 2026-05-06 14:12 | 0.87681 | 35.09923 | 37387 ft | 473 kts | 139° |
| 2026-05-06 14:13 | 0.82727 | 35.14284 | 37395 ft | 473 kts | 139° |
| 2026-05-06 14:13 | 0.77791 | 35.18628 | 37408 ft | 473 kts | 139° |
| 2026-05-06 14:14 | 0.72842 | 35.22984 | 37405 ft | 472 kts | 139° |
| 2026-05-06 14:14 | 0.67902 | 35.27333 | 37407 ft | 472 kts | 139° |
| 2026-05-06 14:15 | 0.62990 | 35.31658 | 37404 ft | 472 kts | 139° |
| 2026-05-06 14:15 | 0.58074 | 35.35986 | 37418 ft | 473 kts | 139° |
| 2026-05-06 14:16 | 0.53120 | 35.40348 | 37422 ft | 474 kts | 139° |
| 2026-05-06 14:16 | 0.48161 | 35.44715 | 37429 ft | 474 kts | 139° |
| 2026-05-06 14:17 | 0.43222 | 35.49063 | 37440 ft | 474 kts | 139° |
| 2026-05-06 14:17 | 0.38237 | 35.53452 | 37438 ft | 474 kts | 139° |
| 2026-05-06 14:18 | 0.33299 | 35.57799 | 37432 ft | 473 kts | 139° |
| 2026-05-06 14:18 | 0.28369 | 35.62139 | 37429 ft | 474 kts | 139° |
| 2026-05-06 14:19 | 0.23399 | 35.66515 | 37421 ft | 475 kts | 139° |
| 2026-05-06 14:19 | 0.18443 | 35.70878 | 37409 ft | 475 kts | 139° |
| 2026-05-06 14:20 | 0.13477 | 35.75250 | 37404 ft | 475 kts | 139° |
| 2026-05-06 14:20 | 0.08537 | 35.79599 | 37246 ft | 474 kts | 139° |
| 2026-05-06 14:21 | 0.03569 | 35.83974 | 37254 ft | 476 kts | 139° |
| 2026-05-06 14:21 | 0.01076 | 35.86182 | 36961 ft | 478 kts | 137° |
| 2026-05-06 14:21 | -0.01376 | 35.88420 | 36556 ft | 475 kts | 141° |
| 2026-05-06 14:22 | -0.04067 | 35.90296 | 36174 ft | 474 kts | 150° |
| 2026-05-06 14:22 | -0.07031 | 35.91734 | 35795 ft | 474 kts | 159° |
| 2026-05-06 14:22 | -0.10211 | 35.92702 | 35288 ft | 474 kts | 168° |
| 2026-05-06 14:22 | -0.13453 | 35.93177 | 34734 ft | 466 kts | 173° |
| 2026-05-06 14:23 | -0.16605 | 35.93813 | 34178 ft | 456 kts | 163° |
| 2026-05-06 14:23 | -0.19566 | 35.94843 | 33631 ft | 446 kts | 160° |
| 2026-05-06 14:23 | -0.22441 | 35.95896 | 33074 ft | 439 kts | 160° |
| 2026-05-06 14:23 | -0.25320 | 35.96956 | 32525 ft | 434 kts | 160° |
| 2026-05-06 14:24 | -0.28154 | 35.97999 | 32030 ft | 433 kts | 160° |
| 2026-05-06 14:24 | -0.30953 | 35.99030 | 31540 ft | 431 kts | 160° |
| 2026-05-06 14:24 | -0.33758 | 36.00063 | 31047 ft | 430 kts | 160° |
| 2026-05-06 14:24 | -0.36569 | 36.01098 | 30549 ft | 427 kts | 160° |
| 2026-05-06 14:25 | -0.39373 | 36.02131 | 30051 ft | 424 kts | 160° |
| 2026-05-06 14:25 | -0.42133 | 36.03148 | 29556 ft | 421 kts | 159° |
| 2026-05-06 14:25 | -0.44873 | 36.04157 | 29060 ft | 417 kts | 159° |
| 2026-05-06 14:25 | -0.47574 | 36.05152 | 28570 ft | 415 kts | 159° |
| 2026-05-06 14:26 | -0.50284 | 36.06150 | 28096 ft | 412 kts | 159° |
| 2026-05-06 14:26 | -0.52969 | 36.07139 | 27617 ft | 410 kts | 159° |
| 2026-05-06 14:26 | -0.55637 | 36.08122 | 27146 ft | 409 kts | 159° |
| 2026-05-06 14:26 | -0.58318 | 36.09109 | 26670 ft | 407 kts | 159° |
| 2026-05-06 14:27 | -0.60977 | 36.10089 | 26197 ft | 404 kts | 159° |
| 2026-05-06 14:27 | -0.63606 | 36.11057 | 25724 ft | 402 kts | 159° |
| 2026-05-06 14:27 | -0.66225 | 36.12022 | 25252 ft | 399 kts | 159° |
| 2026-05-06 14:27 | -0.68821 | 36.12978 | 24780 ft | 396 kts | 159° |
| 2026-05-06 14:28 | -0.71376 | 36.13919 | 24313 ft | 393 kts | 159° |
| 2026-05-06 14:28 | -0.73940 | 36.14864 | 23841 ft | 390 kts | 159° |
| 2026-05-06 14:28 | -0.76474 | 36.15797 | 23380 ft | 387 kts | 159° |
| 2026-05-06 14:28 | -0.79002 | 36.16729 | 22925 ft | 385 kts | 159° |
| 2026-05-06 14:29 | -0.81521 | 36.17657 | 22468 ft | 383 kts | 158° |
| 2026-05-06 14:29 | -0.83997 | 36.18569 | 22022 ft | 381 kts | 158° |
| 2026-05-06 14:29 | -0.86511 | 36.19495 | 21572 ft | 379 kts | 158° |
| 2026-05-06 14:29 | -0.88949 | 36.20393 | 21134 ft | 376 kts | 158° |
| 2026-05-06 14:30 | -0.91417 | 36.21302 | 20679 ft | 374 kts | 158° |
| 2026-05-06 14:30 | -0.93841 | 36.22196 | 20231 ft | 371 kts | 158° |
| 2026-05-06 14:30 | -0.96276 | 36.23092 | 19782 ft | 368 kts | 158° |
| 2026-05-06 14:30 | -0.98658 | 36.23970 | 19331 ft | 366 kts | 158° |
| 2026-05-06 14:31 | -1.01067 | 36.24858 | 18880 ft | 365 kts | 158° |
| 2026-05-06 14:31 | -1.03437 | 36.25731 | 18438 ft | 363 kts | 158° |
| 2026-05-06 14:31 | -1.05777 | 36.26593 | 17984 ft | 360 kts | 158° |
| 2026-05-06 14:31 | -1.08133 | 36.27461 | 17529 ft | 358 kts | 158° |
| 2026-05-06 14:32 | -1.10472 | 36.28323 | 17116 ft | 354 kts | 158° |
| 2026-05-06 14:32 | -1.12780 | 36.29174 | 16755 ft | 351 kts | 158° |
| 2026-05-06 14:32 | -1.15069 | 36.30017 | 16392 ft | 350 kts | 158° |
| 2026-05-06 14:32 | -1.17368 | 36.30864 | 16028 ft | 349 kts | 158° |
| 2026-05-06 14:33 | -1.19648 | 36.31704 | 15665 ft | 347 kts | 158° |
| 2026-05-06 14:33 | -1.21903 | 36.32535 | 15308 ft | 346 kts | 158° |
| 2026-05-06 14:33 | -1.24159 | 36.33366 | 14939 ft | 340 kts | 158° |
| 2026-05-06 14:33 | -1.26362 | 36.34178 | 14585 ft | 331 kts | 158° |
| 2026-05-06 14:34 | -1.28509 | 36.34969 | 14278 ft | 321 kts | 158° |
| 2026-05-06 14:34 | -1.30572 | 36.35729 | 13967 ft | 313 kts | 158° |
| 2026-05-06 14:34 | -1.32598 | 36.36482 | 13660 ft | 306 kts | 155° |
| 2026-05-06 14:34 | -1.34263 | 36.37730 | 13379 ft | 299 kts | 122° |
| 2026-05-06 14:35 | -1.35037 | 36.39601 | 13169 ft | 294 kts | 96° |
| 2026-05-06 14:35 | -1.35278 | 36.41639 | 12920 ft | 295 kts | 93° |
| 2026-05-06 14:35 | -1.35453 | 36.43672 | 12639 ft | 293 kts | 92° |
| 2026-05-06 14:35 | -1.35602 | 36.45684 | 12356 ft | 291 kts | 92° |
| 2026-05-06 14:36 | -1.35738 | 36.47685 | 12062 ft | 289 kts | 91° |
| 2026-05-06 14:36 | -1.35869 | 36.49675 | 11770 ft | 287 kts | 92° |
| 2026-05-06 14:36 | -1.35998 | 36.51682 | 11487 ft | 286 kts | 92° |
| 2026-05-06 14:36 | -1.36124 | 36.53653 | 11209 ft | 285 kts | 92° |
| 2026-05-06 14:37 | -1.36249 | 36.55617 | 10942 ft | 283 kts | 92° |
| 2026-05-06 14:37 | -1.36373 | 36.57565 | 10666 ft | 282 kts | 92° |
| 2026-05-06 14:37 | -1.36497 | 36.59518 | 10388 ft | 282 kts | 92° |
| 2026-05-06 14:37 | -1.36620 | 36.61457 | 10114 ft | 280 kts | 92° |
| 2026-05-06 14:38 | -1.36744 | 36.63396 | 9827 ft | 277 kts | 92° |
| 2026-05-06 14:38 | -1.36864 | 36.65300 | 9536 ft | 276 kts | 93° |
| 2026-05-06 14:38 | -1.36986 | 36.67207 | 9245 ft | 274 kts | 93° |
| 2026-05-06 14:38 | -1.37107 | 36.69117 | 8953 ft | 273 kts | 93° |
| 2026-05-06 14:39 | -1.37225 | 36.70985 | 8672 ft | 272 kts | 93° |
| 2026-05-06 14:39 | -1.37346 | 36.72883 | 8384 ft | 271 kts | 93° |
| 2026-05-06 14:39 | -1.37464 | 36.74741 | 8092 ft | 269 kts | 94° |
| 2026-05-06 14:39 | -1.37581 | 36.76594 | 7802 ft | 268 kts | 94° |
| 2026-05-06 14:40 | -1.37698 | 36.78440 | 7529 ft | 261 kts | 94° |
| 2026-05-06 14:40 | -1.37810 | 36.80200 | 7335 ft | 247 kts | 94° |
| 2026-05-06 14:40 | -1.37916 | 36.81862 | 7090 ft | 236 kts | 94° |
| 2026-05-06 14:40 | -1.38017 | 36.83462 | 6858 ft | 226 kts | 94° |
| 2026-05-06 14:41 | -1.37782 | 36.84916 | 6794 ft | 198 kts | 60° |
| 2026-05-06 14:41 | -1.36997 | 36.85940 | 6676 ft | 174 kts | 55° |
| 2026-05-06 14:41 | -1.36304 | 36.86850 | 6455 ft | 156 kts | 57° |
| 2026-05-06 14:41 | -1.35689 | 36.87680 | 6251 ft | 144 kts | 57° |
| 2026-05-06 14:42 | -1.35082 | 36.88475 | 6065 ft | 145 kts | 53° |
| 2026-05-06 14:42 | -1.34447 | 36.89274 | 5896 ft | 145 kts | 57° |
| 2026-05-06 14:42 | -1.33877 | 36.90118 | 5684 ft | 146 kts | 58° |
| 2026-05-06 14:42 | -1.33268 | 36.90911 | 5507 ft | 138 kts | 57° |
| 2026-05-06 14:43 | -1.32725 | 36.91679 | 5416 ft | 138 kts | 58° |
| 2026-05-06 14:43 | -1.32142 | 36.92408 | 5855 ft | 132 kts | 53° |
| 2026-05-06 14:43 | -1.31611 | 36.93194 | 6144 ft | 141 kts | 75° |
| 2026-05-06 14:43 | -1.31766 | 36.94158 | 6305 ft | 159 kts | 133° |
| 2026-05-06 14:44 | -1.32785 | 36.94546 | 6829 ft | 158 kts | 180° |
| 2026-05-06 14:44 | -1.33901 | 36.94137 | 6951 ft | 194 kts | 210° |
| 2026-05-06 14:44 | -1.34859 | 36.93134 | 7448 ft | 201 kts | 233° |
| 2026-05-06 14:45 | -1.36385 | 36.90683 | 8135 ft | 233 kts | 244° |
| 2026-05-06 14:45 | -1.37002 | 36.89156 | 8224 ft | 239 kts | 251° |
| 2026-05-06 14:45 | -1.37434 | 36.87564 | 8206 ft | 236 kts | 258° |
| 2026-05-06 14:45 | -1.38087 | 36.86119 | 8196 ft | 228 kts | 230° |
| 2026-05-06 14:46 | -1.39311 | 36.85140 | 8228 ft | 223 kts | 210° |
| 2026-05-06 14:46 | -1.40647 | 36.84323 | 8111 ft | 227 kts | 210° |
| 2026-05-06 14:46 | -1.41990 | 36.83498 | 7854 ft | 225 kts | 210° |
| 2026-05-06 14:46 | -1.43317 | 36.82679 | 7601 ft | 222 kts | 210° |
| 2026-05-06 14:47 | -1.44464 | 36.81659 | 7321 ft | 223 kts | 242° |
| 2026-05-06 14:47 | -1.44641 | 36.80163 | 7287 ft | 223 kts | 286° |
| 2026-05-06 14:47 | -1.43759 | 36.78928 | 7271 ft | 223 kts | 329° |
| 2026-05-06 14:47 | -1.42390 | 36.78178 | 7307 ft | 224 kts | 333° |
| 2026-05-06 14:48 | -1.40910 | 36.77847 | 7261 ft | 218 kts | 13° |
| 2026-05-06 14:48 | -1.39514 | 36.78404 | 7305 ft | 216 kts | 30° |
| 2026-05-06 14:48 | -1.38467 | 36.79400 | 7140 ft | 207 kts | 68° |
| 2026-05-06 14:48 | -1.38097 | 36.80702 | 7114 ft | 185 kts | 77° |
| 2026-05-06 14:49 | -1.37838 | 36.81962 | 6743 ft | 186 kts | 83° |
| 2026-05-06 14:49 | -1.37711 | 36.83225 | 6459 ft | 182 kts | 94° |
| 2026-05-06 14:49 | -1.37658 | 36.84465 | 6202 ft | 172 kts | 76° |
| 2026-05-06 14:49 | -1.37189 | 36.85479 | 5987 ft | 158 kts | 59° |
| 2026-05-06 14:50 | -1.36574 | 36.86373 | 5734 ft | 155 kts | 58° |
| 2026-05-06 14:50 | -1.35981 | 36.87250 | 5648 ft | 152 kts | 57° |
| 2026-05-06 14:50 | -1.35373 | 36.88107 | 5928 ft | 152 kts | 56° |
| 2026-05-06 14:50 | -1.34721 | 36.88941 | 5745 ft | 149 kts | 55° |
| 2026-05-06 14:51 | -1.34102 | 36.89755 | 5616 ft | 143 kts | 57° |
| 2026-05-06 14:51 | -1.33522 | 36.90562 | 5516 ft | 142 kts | 58° |
| 2026-05-06 14:51 | -1.32936 | 36.91380 | 5425 ft | 146 kts | 56° |
| 2026-05-06 14:51 | -1.32359 | 36.92186 | 5337 ft | 136 kts | 56° |
| 2026-05-06 14:52 | -1.31881 | 36.92842 | 5335 ft | 95 kts | 57° |
| 2026-05-06 14:52 | -1.31568 | 36.93267 | 5335 ft | 64 kts | 55° |
| 2026-05-06 14:52 | -1.31314 | 36.93618 | 5334 ft | 59 kts | 54° |
| 2026-05-06 14:52 | -1.31174 | 36.93807 | 5334 ft | 10 kts | 55° |
| 2026-05-06 14:53 | -1.31204 | 36.93854 | 5334 ft | 9 kts | 144° |
| 2026-05-06 14:53 | -1.31260 | 36.93890 | 5334 ft | 10 kts | 138° |
| 2026-05-06 14:53 | -1.31323 | 36.93939 | 5334 ft | 12 kts | 144° |
| 2026-05-06 14:53 | -1.31398 | 36.93993 | 5334 ft | 14 kts | 143° |
| 2026-05-06 14:54 | -1.31452 | 36.93998 | 5334 ft | 8 kts | 235° |
| 2026-05-06 14:54 | -1.31488 | 36.93940 | 5334 ft | 11 kts | 238° |
| 2026-05-06 14:54 | -1.31541 | 36.93865 | 5334 ft | 14 kts | 233° |
| 2026-05-06 14:54 | -1.31609 | 36.93773 | 5334 ft | 18 kts | 235° |
| 2026-05-06 14:55 | -1.31687 | 36.93660 | 5334 ft | 21 kts | 234° |
| 2026-05-06 14:55 | -1.31781 | 36.93528 | 5334 ft | 24 kts | 234° |
| 2026-05-06 14:55 | -1.31894 | 36.93382 | 5335 ft | 28 kts | 233° |
| 2026-05-06 14:55 | -1.32013 | 36.93214 | 5335 ft | 31 kts | 234° |
| 2026-05-06 14:56 | -1.32149 | 36.93031 | 5335 ft | 34 kts | 233° |
| 2026-05-06 14:56 | -1.32289 | 36.92840 | 5335 ft | 34 kts | 233° |
| 2026-05-06 14:56 | -1.32427 | 36.92645 | 5336 ft | 33 kts | 237° |
| 2026-05-06 14:56 | -1.32563 | 36.92456 | 5336 ft | 33 kts | 234° |
| 2026-05-06 14:57 | -1.32702 | 36.92268 | 5336 ft | 33 kts | 234° |
| 2026-05-06 14:57 | -1.32777 | 36.92201 | 5336 ft | 9 kts | 169° |
| 2026-05-06 14:57 | -1.32839 | 36.92238 | 5336 ft | 11 kts | 145° |
| 2026-05-06 14:57 | -1.32916 | 36.92248 | 5336 ft | 12 kts | 205° |
| 2026-05-06 14:58 | -1.33003 | 36.92221 | 5336 ft | 14 kts | 186° |
| 2026-05-06 14:58 | -1.33106 | 36.92224 | 5336 ft | 15 kts | 169° |
| 2026-05-06 14:58 | -1.33211 | 36.92266 | 5336 ft | 17 kts | 155° |
| 2026-05-06 14:58 | -1.33326 | 36.92281 | 5336 ft | 10 kts | 172° |
| 2026-05-06 14:59 | -1.33335 | 36.92315 | 5336 ft | 6 kts | 61° |
| 2026-05-06 14:59 | -1.33318 | 36.92355 | 5336 ft | 6 kts | 70° |
| 2026-05-06 14:59 | -1.33313 | 36.92368 | 5336 ft | 0 kts | 70° |